CCA4402 ZULS-ZUUU
Flight info
| Callsign | CCA4402 |
|---|---|
| Flight time | N/A |
| Altitude | 37100 |
| Route | LXA W500 DM W9 LADUP LADUP8L |
| Aircraft | B738/M-SDE2E3FGHIRWXY/LB1 |
Departure
| Time | 2026-05-07 13:50 |
|---|---|
| Airport | Lhasa Gonggar International Airport (ZULS) |
Arrival
| Time | N/A |
|---|---|
| Airport | Chengdu Shuangliu International Airport (ZUUU) |
| Time | Latitude | Longitude | Altitude | Speed | Heading |
|---|---|---|---|---|---|
| 2026-05-07 13:38 | 29.29387 | 90.89587 | 11904 ft | 0 kts | 179° |
| 2026-05-07 13:43 | 29.29388 | 90.89587 | 11904 ft | 1 kts | 179° |
| 2026-05-07 13:43 | 29.29403 | 90.89587 | 11904 ft | 2 kts | 178° |
| 2026-05-07 13:44 | 29.29418 | 90.89587 | 11904 ft | 2 kts | 179° |
| 2026-05-07 13:44 | 29.29433 | 90.89587 | 11904 ft | 2 kts | 178° |
| 2026-05-07 13:44 | 29.29448 | 90.89586 | 11904 ft | 2 kts | 179° |
| 2026-05-07 13:44 | 29.29463 | 90.89586 | 11904 ft | 2 kts | 179° |
| 2026-05-07 13:45 | 29.29478 | 90.89585 | 11904 ft | 2 kts | 179° |
| 2026-05-07 13:45 | 29.29493 | 90.89588 | 11904 ft | 2 kts | 208° |
| 2026-05-07 13:45 | 29.29505 | 90.89599 | 11904 ft | 2 kts | 231° |
| 2026-05-07 13:45 | 29.29512 | 90.89613 | 11904 ft | 2 kts | 255° |
| 2026-05-07 13:46 | 29.29513 | 90.89623 | 11904 ft | 1 kts | 269° |
| 2026-05-07 13:46 | 29.29513 | 90.89630 | 11904 ft | 0 kts | 270° |
| 2026-05-07 13:47 | 29.29513 | 90.89629 | 11904 ft | 1 kts | 270° |
| 2026-05-07 13:47 | 29.29513 | 90.89598 | 11904 ft | 6 kts | 269° |
| 2026-05-07 13:48 | 29.29512 | 90.89529 | 11904 ft | 10 kts | 269° |
| 2026-05-07 13:48 | 29.29509 | 90.89434 | 11904 ft | 13 kts | 268° |
| 2026-05-07 13:48 | 29.29505 | 90.89314 | 11904 ft | 16 kts | 270° |
| 2026-05-07 13:48 | 29.29530 | 90.89197 | 11905 ft | 16 kts | 341° |
| 2026-05-07 13:49 | 29.29646 | 90.89188 | 11905 ft | 17 kts | 357° |
| 2026-05-07 13:49 | 29.29765 | 90.89211 | 11905 ft | 19 kts | 54° |
| 2026-05-07 13:49 | 29.29777 | 90.89496 | 11905 ft | 63 kts | 89° |
| 2026-05-07 13:49 | 29.29792 | 90.90256 | 11904 ft | 127 kts | 90° |
| 2026-05-07 13:50 | 29.29819 | 90.91512 | 11902 ft | 183 kts | 89° |
| 2026-05-07 13:50 | 29.29823 | 90.93114 | 12159 ft | 211 kts | 91° |
| 2026-05-07 13:50 | 29.29881 | 90.94706 | 13150 ft | 200 kts | 90° |
| 2026-05-07 13:50 | 29.29970 | 90.96303 | 13822 ft | 207 kts | 89° |
| 2026-05-07 13:51 | 29.30070 | 90.97987 | 14320 ft | 221 kts | 89° |
| 2026-05-07 13:51 | 29.30165 | 90.99787 | 14869 ft | 233 kts | 92° |
| 2026-05-07 13:51 | 29.29956 | 91.01658 | 15398 ft | 244 kts | 107° |
| 2026-05-07 13:51 | 29.29340 | 91.03527 | 15917 ft | 257 kts | 117° |
| 2026-05-07 13:52 | 29.28508 | 91.05388 | 16435 ft | 272 kts | 120° |
| 2026-05-07 13:52 | 29.27602 | 91.07338 | 16990 ft | 285 kts | 120° |
| 2026-05-07 13:52 | 29.26670 | 91.09349 | 17735 ft | 291 kts | 120° |
| 2026-05-07 13:52 | 29.25749 | 91.11415 | 18556 ft | 293 kts | 117° |
| 2026-05-07 13:53 | 29.24902 | 91.13548 | 19232 ft | 298 kts | 116° |
| 2026-05-07 13:53 | 29.24063 | 91.15720 | 19908 ft | 303 kts | 116° |
| 2026-05-07 13:53 | 29.23387 | 91.17982 | 20587 ft | 309 kts | 105° |
| 2026-05-07 13:53 | 29.22981 | 91.20409 | 21259 ft | 315 kts | 100° |
| 2026-05-07 13:54 | 29.22849 | 91.22952 | 21712 ft | 330 kts | 88° |
| 2026-05-07 13:54 | 29.23161 | 91.25602 | 22094 ft | 346 kts | 79° |
| 2026-05-07 13:54 | 29.23705 | 91.28330 | 22519 ft | 360 kts | 77° |
| 2026-05-07 13:54 | 29.24307 | 91.31163 | 23023 ft | 371 kts | 77° |
| 2026-05-07 13:55 | 29.24885 | 91.34059 | 23683 ft | 376 kts | 78° |
| 2026-05-07 13:55 | 29.25425 | 91.36964 | 24439 ft | 378 kts | 78° |
| 2026-05-07 13:55 | 29.25948 | 91.39927 | 25108 ft | 382 kts | 79° |
| 2026-05-07 13:55 | 29.26462 | 91.42931 | 25753 ft | 386 kts | 79° |
| 2026-05-07 13:56 | 29.26964 | 91.45924 | 26334 ft | 392 kts | 79° |
| 2026-05-07 13:56 | 29.27411 | 91.49041 | 26982 ft | 395 kts | 83° |
| 2026-05-07 13:56 | 29.27620 | 91.52169 | 27571 ft | 399 kts | 89° |
| 2026-05-07 13:56 | 29.27543 | 91.55338 | 28036 ft | 404 kts | 94° |
| 2026-05-07 13:57 | 29.27306 | 91.58538 | 28415 ft | 407 kts | 96° |
| 2026-05-07 13:57 | 29.27002 | 91.61770 | 28953 ft | 411 kts | 97° |
| 2026-05-07 13:57 | 29.26675 | 91.65024 | 29555 ft | 412 kts | 98° |
| 2026-05-07 13:57 | 29.26354 | 91.68257 | 30027 ft | 415 kts | 98° |
| 2026-05-07 13:58 | 29.26034 | 91.71585 | 30253 ft | 427 kts | 98° |
| 2026-05-07 13:58 | 29.25719 | 91.74974 | 30631 ft | 432 kts | 98° |
| 2026-05-07 13:58 | 29.25434 | 91.78389 | 31049 ft | 437 kts | 97° |
| 2026-05-07 13:58 | 29.25253 | 91.81883 | 31358 ft | 445 kts | 94° |
| 2026-05-07 13:59 | 29.25149 | 91.85441 | 31593 ft | 454 kts | 94° |
| 2026-05-07 13:59 | 29.25072 | 91.89131 | 31731 ft | 467 kts | 94° |
| 2026-05-07 13:59 | 29.25003 | 91.92850 | 31878 ft | 478 kts | 94° |
| 2026-05-07 13:59 | 29.24927 | 91.96716 | 32077 ft | 488 kts | 94° |
| 2026-05-07 14:00 | 29.24844 | 92.00599 | 32297 ft | 498 kts | 94° |
| 2026-05-07 14:00 | 29.24753 | 92.04560 | 32744 ft | 501 kts | 94° |
| 2026-05-07 14:00 | 29.24656 | 92.08553 | 33353 ft | 501 kts | 95° |
| 2026-05-07 14:00 | 29.24554 | 92.12500 | 33951 ft | 501 kts | 95° |
| 2026-05-07 14:01 | 29.24446 | 92.16488 | 34556 ft | 500 kts | 95° |
| 2026-05-07 14:01 | 29.24334 | 92.20454 | 35017 ft | 502 kts | 96° |
| 2026-05-07 14:01 | 29.24223 | 92.24404 | 35428 ft | 505 kts | 95° |
| 2026-05-07 14:01 | 29.24111 | 92.28461 | 35848 ft | 507 kts | 95° |
| 2026-05-07 14:02 | 29.24005 | 92.32439 | 36321 ft | 507 kts | 95° |
| 2026-05-07 14:02 | 29.23898 | 92.36485 | 36715 ft | 509 kts | 96° |
| 2026-05-07 14:02 | 29.23789 | 92.40504 | 37066 ft | 512 kts | 96° |
| 2026-05-07 14:02 | 29.23678 | 92.44590 | 37480 ft | 513 kts | 96° |
| 2026-05-07 14:03 | 29.23568 | 92.48649 | 37767 ft | 517 kts | 96° |
| 2026-05-07 14:03 | 29.24083 | 92.56943 | 37772 ft | 523 kts | 81° |
| 2026-05-07 14:04 | 29.26444 | 92.64836 | 37786 ft | 525 kts | 64° |
| 2026-05-07 14:04 | 29.29806 | 92.72199 | 37785 ft | 523 kts | 60° |
| 2026-05-07 14:05 | 29.33452 | 92.79430 | 37785 ft | 526 kts | 59° |
| 2026-05-07 14:05 | 29.37142 | 92.86660 | 37783 ft | 524 kts | 59° |
| 2026-05-07 14:06 | 29.40767 | 92.93872 | 37782 ft | 525 kts | 60° |
| 2026-05-07 14:06 | 29.44346 | 93.01090 | 37782 ft | 522 kts | 60° |
| 2026-05-07 14:07 | 29.47909 | 93.08336 | 37793 ft | 523 kts | 59° |
| 2026-05-07 14:07 | 29.51463 | 93.15589 | 37789 ft | 520 kts | 60° |
| 2026-05-07 14:08 | 29.54993 | 93.22800 | 37794 ft | 520 kts | 60° |
| 2026-05-07 14:08 | 29.58558 | 93.30089 | 37796 ft | 522 kts | 59° |
| 2026-05-07 14:09 | 29.62081 | 93.37317 | 37786 ft | 520 kts | 59° |
| 2026-05-07 14:09 | 29.65600 | 93.44552 | 37775 ft | 520 kts | 59° |
| 2026-05-07 14:10 | 29.69115 | 93.51782 | 37772 ft | 520 kts | 60° |
| 2026-05-07 14:10 | 29.72614 | 93.58990 | 37766 ft | 518 kts | 59° |
| 2026-05-07 14:11 | 29.76138 | 93.66270 | 37765 ft | 519 kts | 60° |
| 2026-05-07 14:11 | 29.79635 | 93.73502 | 37760 ft | 518 kts | 60° |
| 2026-05-07 14:12 | 29.83135 | 93.80752 | 37738 ft | 519 kts | 60° |
| 2026-05-07 14:12 | 29.86579 | 93.87987 | 37761 ft | 519 kts | 62° |
| 2026-05-07 14:13 | 29.89562 | 93.95581 | 37772 ft | 520 kts | 71° |
| 2026-05-07 14:13 | 29.91592 | 94.03521 | 37777 ft | 519 kts | 78° |
| 2026-05-07 14:14 | 29.93183 | 94.11597 | 37739 ft | 519 kts | 80° |
| 2026-05-07 14:14 | 29.94692 | 94.19665 | 37720 ft | 518 kts | 79° |
| 2026-05-07 14:15 | 29.96226 | 94.27772 | 37690 ft | 518 kts | 79° |
| 2026-05-07 14:15 | 29.97788 | 94.35894 | 37685 ft | 520 kts | 79° |
| 2026-05-07 14:16 | 29.99360 | 94.43996 | 37671 ft | 518 kts | 79° |
| 2026-05-07 14:16 | 30.00936 | 94.52100 | 37675 ft | 518 kts | 79° |
| 2026-05-07 14:17 | 30.02510 | 94.60197 | 37672 ft | 520 kts | 79° |
| 2026-05-07 14:17 | 30.04078 | 94.68302 | 37666 ft | 519 kts | 80° |
| 2026-05-07 14:18 | 30.05636 | 94.76384 | 37618 ft | 520 kts | 80° |
| 2026-05-07 14:18 | 30.07200 | 94.84541 | 37620 ft | 519 kts | 79° |
| 2026-05-07 14:19 | 30.08756 | 94.92677 | 37624 ft | 519 kts | 79° |
| 2026-05-07 14:19 | 30.10301 | 95.00765 | 37607 ft | 520 kts | 79° |
| 2026-05-07 14:20 | 30.11905 | 95.08884 | 37605 ft | 520 kts | 79° |
| 2026-05-07 14:20 | 30.13522 | 95.16969 | 37623 ft | 521 kts | 78° |
| 2026-05-07 14:21 | 30.15149 | 95.25123 | 37653 ft | 520 kts | 78° |
| 2026-05-07 14:21 | 30.16755 | 95.33241 | 37648 ft | 521 kts | 79° |
| 2026-05-07 14:22 | 30.18351 | 95.41352 | 37657 ft | 520 kts | 79° |
| 2026-05-07 14:22 | 30.19953 | 95.49524 | 37674 ft | 521 kts | 79° |
| 2026-05-07 14:23 | 30.21535 | 95.57648 | 37680 ft | 521 kts | 78° |
| 2026-05-07 14:23 | 30.23111 | 95.65770 | 37702 ft | 520 kts | 79° |
| 2026-05-07 14:24 | 30.24686 | 95.73906 | 37728 ft | 521 kts | 79° |
| 2026-05-07 14:24 | 30.26254 | 95.82031 | 37726 ft | 520 kts | 79° |
| 2026-05-07 14:25 | 30.27830 | 95.90211 | 37739 ft | 520 kts | 79° |
| 2026-05-07 14:25 | 30.29387 | 95.98326 | 37767 ft | 521 kts | 79° |
| 2026-05-07 14:26 | 30.30966 | 96.06490 | 37795 ft | 519 kts | 79° |
| 2026-05-07 14:26 | 30.32592 | 96.14619 | 37782 ft | 520 kts | 78° |
| 2026-05-07 14:27 | 30.34236 | 96.22759 | 37771 ft | 520 kts | 78° |
| 2026-05-07 14:27 | 30.35871 | 96.30888 | 37788 ft | 520 kts | 78° |
| 2026-05-07 14:28 | 30.37492 | 96.39040 | 37779 ft | 520 kts | 78° |
| 2026-05-07 14:28 | 30.39095 | 96.47119 | 37781 ft | 519 kts | 78° |
| 2026-05-07 14:29 | 30.40700 | 96.55263 | 37767 ft | 519 kts | 78° |
| 2026-05-07 14:29 | 30.42300 | 96.63410 | 37784 ft | 519 kts | 78° |
| 2026-05-07 14:30 | 30.43889 | 96.71529 | 37780 ft | 519 kts | 78° |
| 2026-05-07 14:30 | 30.45467 | 96.79636 | 37785 ft | 518 kts | 78° |
| 2026-05-07 14:31 | 30.47050 | 96.87783 | 37797 ft | 519 kts | 79° |
| 2026-05-07 14:31 | 30.48623 | 96.95928 | 37804 ft | 519 kts | 79° |
| 2026-05-07 14:32 | 30.50180 | 97.04009 | 37797 ft | 517 kts | 79° |
| 2026-05-07 14:32 | 30.51522 | 97.12183 | 37793 ft | 518 kts | 85° |
| 2026-05-07 14:33 | 30.51732 | 97.20463 | 37795 ft | 512 kts | 96° |
| 2026-05-07 14:33 | 30.51166 | 97.28657 | 37784 ft | 510 kts | 99° |
| 2026-05-07 14:34 | 30.50403 | 97.36772 | 37781 ft | 510 kts | 101° |
| 2026-05-07 14:34 | 30.49643 | 97.44923 | 37785 ft | 509 kts | 99° |
| 2026-05-07 14:35 | 30.48914 | 97.53107 | 37786 ft | 511 kts | 99° |
| 2026-05-07 14:35 | 30.48205 | 97.61271 | 37786 ft | 510 kts | 99° |
| 2026-05-07 14:36 | 30.47504 | 97.69435 | 37776 ft | 510 kts | 100° |
| 2026-05-07 14:36 | 30.46804 | 97.77549 | 37769 ft | 512 kts | 99° |
| 2026-05-07 14:37 | 30.46093 | 97.85777 | 37767 ft | 511 kts | 99° |
| 2026-05-07 14:37 | 30.45033 | 97.97984 | 37757 ft | 511 kts | 99° |
| 2026-05-07 14:38 | 30.44315 | 98.06177 | 37766 ft | 512 kts | 99° |
| 2026-05-07 14:38 | 30.43591 | 98.14339 | 37747 ft | 511 kts | 99° |
| 2026-05-07 14:39 | 30.42870 | 98.22514 | 37731 ft | 510 kts | 99° |
| 2026-05-07 14:39 | 30.42223 | 98.30688 | 37742 ft | 513 kts | 98° |
| 2026-05-07 14:40 | 30.41604 | 98.38889 | 37723 ft | 512 kts | 98° |
| 2026-05-07 14:40 | 30.40980 | 98.47050 | 37719 ft | 512 kts | 98° |
| 2026-05-07 14:41 | 30.40345 | 98.55233 | 37719 ft | 512 kts | 98° |
| 2026-05-07 14:41 | 30.39692 | 98.63463 | 37713 ft | 510 kts | 98° |
| 2026-05-07 14:42 | 30.39032 | 98.71603 | 37703 ft | 512 kts | 99° |
| 2026-05-07 14:42 | 30.38365 | 98.79810 | 37698 ft | 513 kts | 98° |
| 2026-05-07 14:43 | 30.37693 | 98.88014 | 37685 ft | 513 kts | 99° |
| 2026-05-07 14:43 | 30.37015 | 98.96205 | 37662 ft | 512 kts | 99° |
| 2026-05-07 14:44 | 30.36337 | 99.04443 | 37663 ft | 512 kts | 99° |
| 2026-05-07 14:44 | 30.35652 | 99.12620 | 37693 ft | 513 kts | 98° |
| 2026-05-07 14:45 | 30.34959 | 99.20830 | 37697 ft | 512 kts | 98° |
| 2026-05-07 14:45 | 30.34266 | 99.28999 | 37698 ft | 512 kts | 98° |
| 2026-05-07 14:46 | 30.33560 | 99.37249 | 37721 ft | 514 kts | 98° |
| 2026-05-07 14:46 | 30.32853 | 99.45428 | 37718 ft | 513 kts | 98° |
| 2026-05-07 14:47 | 30.32140 | 99.53673 | 37756 ft | 515 kts | 99° |
| 2026-05-07 14:47 | 30.31424 | 99.61880 | 37762 ft | 512 kts | 98° |
| 2026-05-07 14:48 | 30.30704 | 99.70058 | 37775 ft | 514 kts | 99° |
| 2026-05-07 14:48 | 30.29971 | 99.78273 | 37776 ft | 516 kts | 99° |
| 2026-05-07 14:49 | 30.29229 | 99.86513 | 37785 ft | 514 kts | 99° |
| 2026-05-07 14:49 | 30.28450 | 99.95142 | 37796 ft | 513 kts | 99° |
| 2026-05-07 14:50 | 30.27707 | 100.03442 | 37811 ft | 531 kts | 98° |
| 2026-05-07 14:50 | 30.27040 | 100.12048 | 37800 ft | 542 kts | 97° |
| 2026-05-07 14:51 | 30.26423 | 100.20707 | 37770 ft | 538 kts | 97° |
| 2026-05-07 14:51 | 30.25806 | 100.29330 | 37752 ft | 539 kts | 97° |